sensor_id;sensor_type;location;lat;lon;timestamp;temperature;humidity
51878;SHT31;37911;51.526;11.536;2022-12-07T00:00:21;0.91;91.95
51878;SHT31;37911;51.526;11.536;2022-12-07T00:03:24;0.93;91.95
51878;SHT31;37911;51.526;11.536;2022-12-07T00:06:31;0.96;91.92
51878;SHT31;37911;51.526;11.536;2022-12-07T00:09:34;0.89;91.82
51878;SHT31;37911;51.526;11.536;2022-12-07T00:12:39;0.93;91.88
51878;SHT31;37911;51.526;11.536;2022-12-07T00:15:43;0.91;91.95
51878;SHT31;37911;51.526;11.536;2022-12-07T00:18:46;0.87;91.90
51878;SHT31;37911;51.526;11.536;2022-12-07T00:21:52;0.81;91.88
51878;SHT31;37911;51.526;11.536;2022-12-07T00:24:56;0.81;91.87
51878;SHT31;37911;51.526;11.536;2022-12-07T00:27:59;0.80;91.86
51878;SHT31;37911;51.526;11.536;2022-12-07T00:31:05;0.79;91.98
51878;SHT31;37911;51.526;11.536;2022-12-07T00:34:12;0.76;92.11
51878;SHT31;37911;51.526;11.536;2022-12-07T00:37:18;0.79;92.16
51878;SHT31;37911;51.526;11.536;2022-12-07T00:40:22;0.77;92.16
51878;SHT31;37911;51.526;11.536;2022-12-07T00:43:26;0.80;92.18
51878;SHT31;37911;51.526;11.536;2022-12-07T00:46:30;0.80;92.20
51878;SHT31;37911;51.526;11.536;2022-12-07T00:49:33;0.81;92.32
51878;SHT31;37911;51.526;11.536;2022-12-07T00:52:39;0.81;92.31
51878;SHT31;37911;51.526;11.536;2022-12-07T00:55:43;0.81;92.42
51878;SHT31;37911;51.526;11.536;2022-12-07T00:58:50;0.81;92.44
51878;SHT31;37911;51.526;11.536;2022-12-07T01:01:54;0.84;92.47
51878;SHT31;37911;51.526;11.536;2022-12-07T01:04:57;0.81;92.53
51878;SHT31;37911;51.526;11.536;2022-12-07T01:08:04;0.86;92.50
51878;SHT31;37911;51.526;11.536;2022-12-07T01:11:11;0.87;92.68
51878;SHT31;37911;51.526;11.536;2022-12-07T01:14:15;0.99;92.86
51878;SHT31;37911;51.526;11.536;2022-12-07T01:17:18;1.08;93.00
51878;SHT31;37911;51.526;11.536;2022-12-07T01:20:22;1.10;92.97
51878;SHT31;37911;51.526;11.536;2022-12-07T01:23:29;1.20;92.91
51878;SHT31;37911;51.526;11.536;2022-12-07T01:26:32;1.20;93.04
51878;SHT31;37911;51.526;11.536;2022-12-07T01:29:36;1.27;93.00
51878;SHT31;37911;51.526;11.536;2022-12-07T01:32:39;1.27;92.98
51878;SHT31;37911;51.526;11.536;2022-12-07T01:35:43;1.27;92.99
51878;SHT31;37911;51.526;11.536;2022-12-07T01:38:50;1.33;92.82
51878;SHT31;37911;51.526;11.536;2022-12-07T01:41:56;1.37;92.83
51878;SHT31;37911;51.526;11.536;2022-12-07T01:48:45;1.44;92.61
51878;SHT31;37911;51.526;11.536;2022-12-07T01:51:51;1.48;92.61
51878;SHT31;37911;51.526;11.536;2022-12-07T01:55:01;1.50;92.62
51878;SHT31;37911;51.526;11.536;2022-12-07T01:58:05;1.50;92.62
51878;SHT31;37911;51.526;11.536;2022-12-07T02:01:08;1.54;92.61
51878;SHT31;37911;51.526;11.536;2022-12-07T02:04:12;1.51;92.65
51878;SHT31;37911;51.526;11.536;2022-12-07T02:07:15;1.52;92.62
51878;SHT31;37911;51.526;11.536;2022-12-07T02:10:24;1.50;92.77
51878;SHT31;37911;51.526;11.536;2022-12-07T02:13:30;1.61;92.62
51878;SHT31;37911;51.526;11.536;2022-12-07T02:16:41;1.59;92.77
51878;SHT31;37911;51.526;11.536;2022-12-07T02:20:13;1.68;92.66
51878;SHT31;37911;51.526;11.536;2022-12-07T02:23:34;1.62;92.81
51878;SHT31;37911;51.526;11.536;2022-12-07T02:30:19;1.61;92.91
51878;SHT31;37911;51.526;11.536;2022-12-07T02:33:27;1.64;92.77
51878;SHT31;37911;51.526;11.536;2022-12-07T02:36:35;1.64;92.77
51878;SHT31;37911;51.526;11.536;2022-12-07T02:39:44;1.59;92.81
51878;SHT31;37911;51.526;11.536;2022-12-07T02:42:52;1.58;92.69
51878;SHT31;37911;51.526;11.536;2022-12-07T02:46:03;1.59;92.61
51878;SHT31;37911;51.526;11.536;2022-12-07T02:49:08;1.59;92.34
51878;SHT31;37911;51.526;11.536;2022-12-07T02:52:12;1.62;92.38
51878;SHT31;37911;51.526;11.536;2022-12-07T02:55:17;1.59;92.26
51878;SHT31;37911;51.526;11.536;2022-12-07T02:58:28;1.58;92.17
51878;SHT31;37911;51.526;11.536;2022-12-07T03:01:41;1.56;92.34
51878;SHT31;37911;51.526;11.536;2022-12-07T03:04:52;1.56;92.39
51878;SHT31;37911;51.526;11.536;2022-12-07T03:08:04;1.52;92.46
51878;SHT31;37911;51.526;11.536;2022-12-07T03:11:11;1.59;92.10
51878;SHT31;37911;51.526;11.536;2022-12-07T03:14:19;1.55;92.31
51878;SHT31;37911;51.526;11.536;2022-12-07T03:17:31;1.56;92.32
51878;SHT31;37911;51.526;11.536;2022-12-07T03:20:37;1.54;92.46
51878;SHT31;37911;51.526;11.536;2022-12-07T03:23:45;1.59;92.34
51878;SHT31;37911;51.526;11.536;2022-12-07T03:26:53;1.61;92.44
51878;SHT31;37911;51.526;11.536;2022-12-07T03:30:00;1.61;92.58
51878;SHT31;37911;51.526;11.536;2022-12-07T03:33:11;1.59;92.92
51878;SHT31;37911;51.526;11.536;2022-12-07T03:36:20;1.64;93.04
51878;SHT31;37911;51.526;11.536;2022-12-07T03:39:27;1.66;93.20
51878;SHT31;37911;51.526;11.536;2022-12-07T03:42:34;1.68;93.29
51878;SHT31;37911;51.526;11.536;2022-12-07T03:45:40;1.65;93.39
51878;SHT31;37911;51.526;11.536;2022-12-07T03:48:54;1.71;93.33
51878;SHT31;37911;51.526;11.536;2022-12-07T03:52:02;1.68;93.45
51878;SHT31;37911;51.526;11.536;2022-12-07T03:55:17;1.64;93.66
51878;SHT31;37911;51.526;11.536;2022-12-07T03:58:22;1.66;93.65
51878;SHT31;37911;51.526;11.536;2022-12-07T04:05:32;1.68;93.63
51878;SHT31;37911;51.526;11.536;2022-12-07T04:08:35;1.69;93.63
51878;SHT31;37911;51.526;11.536;2022-12-07T04:11:39;1.66;93.72
51878;SHT31;37911;51.526;11.536;2022-12-07T04:14:42;1.68;93.74
51878;SHT31;37911;51.526;11.536;2022-12-07T04:17:45;1.62;93.93
51878;SHT31;37911;51.526;11.536;2022-12-07T04:20:51;1.66;93.86
51878;SHT31;37911;51.526;11.536;2022-12-07T04:23:55;1.65;93.87
51878;SHT31;37911;51.526;11.536;2022-12-07T04:26:58;1.66;93.91
51878;SHT31;37911;51.526;11.536;2022-12-07T04:30:03;1.65;94.05
51878;SHT31;37911;51.526;11.536;2022-12-07T04:33:06;1.65;94.15
51878;SHT31;37911;51.526;11.536;2022-12-07T04:36:12;1.69;94.08
51878;SHT31;37911;51.526;11.536;2022-12-07T04:39:19;1.65;94.12
51878;SHT31;37911;51.526;11.536;2022-12-07T04:42:22;1.72;94.21
51878;SHT31;37911;51.526;11.536;2022-12-07T04:45:26;1.75;94.11
51878;SHT31;37911;51.526;11.536;2022-12-07T04:48:29;1.78;94.07
51878;SHT31;37911;51.526;11.536;2022-12-07T04:51:35;1.81;94.07
51878;SHT31;37911;51.526;11.536;2022-12-07T04:54:39;1.86;93.98
51878;SHT31;37911;51.526;11.536;2022-12-07T04:57:42;1.91;93.78
51878;SHT31;37911;51.526;11.536;2022-12-07T05:00:46;1.88;93.76
51878;SHT31;37911;51.526;11.536;2022-12-07T05:03:50;1.88;93.68
51878;SHT31;37911;51.526;11.536;2022-12-07T05:06:56;1.88;93.73
51878;SHT31;37911;51.526;11.536;2022-12-07T05:09:59;1.88;93.77
51878;SHT31;37911;51.526;11.536;2022-12-07T05:13:03;1.89;93.70
51878;SHT31;37911;51.526;11.536;2022-12-07T05:16:06;1.91;93.80
51878;SHT31;37911;51.526;11.536;2022-12-07T05:19:10;1.95;93.65
51878;SHT31;37911;51.526;11.536;2022-12-07T05:22:16;1.98;93.43
51878;SHT31;37911;51.526;11.536;2022-12-07T05:25:20;1.96;93.58
51878;SHT31;37911;51.526;11.536;2022-12-07T05:28:23;1.95;93.56
51878;SHT31;37911;51.526;11.536;2022-12-07T05:31:27;1.99;93.38
51878;SHT31;37911;51.526;11.536;2022-12-07T05:34:31;1.95;93.44
51878;SHT31;37911;51.526;11.536;2022-12-07T05:37:37;1.99;93.27
51878;SHT31;37911;51.526;11.536;2022-12-07T05:40:40;1.88;93.47
51878;SHT31;37911;51.526;11.536;2022-12-07T05:43:44;1.85;93.54
51878;SHT31;37911;51.526;11.536;2022-12-07T05:46:47;1.86;93.53
51878;SHT31;37911;51.526;11.536;2022-12-07T05:49:50;1.81;93.59
51878;SHT31;37911;51.526;11.536;2022-12-07T05:52:56;1.82;93.62
51878;SHT31;37911;51.526;11.536;2022-12-07T05:56:00;1.81;93.62
51878;SHT31;37911;51.526;11.536;2022-12-07T05:59:03;1.95;93.47
51878;SHT31;37911;51.526;11.536;2022-12-07T06:02:19;1.99;93.25
51878;SHT31;37911;51.526;11.536;2022-12-07T06:05:23;2.02;92.99
51878;SHT31;37911;51.526;11.536;2022-12-07T06:08:29;1.95;92.87
51878;SHT31;37911;51.526;11.536;2022-12-07T06:11:32;1.91;93.06
51878;SHT31;37911;51.526;11.536;2022-12-07T06:14:49;1.81;93.23
51878;SHT31;37911;51.526;11.536;2022-12-07T06:17:52;1.83;93.32
51878;SHT31;37911;51.526;11.536;2022-12-07T06:20:55;1.81;93.35
51878;SHT31;37911;51.526;11.536;2022-12-07T06:24:02;1.78;93.53
51878;SHT31;37911;51.526;11.536;2022-12-07T06:27:05;1.81;93.59
51878;SHT31;37911;51.526;11.536;2022-12-07T06:30:09;1.79;93.53
51878;SHT31;37911;51.526;11.536;2022-12-07T06:33:13;1.81;93.47
51878;SHT31;37911;51.526;11.536;2022-12-07T06:36:16;1.75;93.41
51878;SHT31;37911;51.526;11.536;2022-12-07T06:39:24;1.75;93.29
51878;SHT31;37911;51.526;11.536;2022-12-07T06:42:27;1.76;93.22
51878;SHT31;37911;51.526;11.536;2022-12-07T06:45:31;1.75;93.26
51878;SHT31;37911;51.526;11.536;2022-12-07T06:48:34;1.69;93.40
51878;SHT31;37911;51.526;11.536;2022-12-07T06:51:37;1.72;93.44
51878;SHT31;37911;51.526;11.536;2022-12-07T06:54:44;1.72;93.39
51878;SHT31;37911;51.526;11.536;2022-12-07T06:57:47;1.71;93.42
51878;SHT31;37911;51.526;11.536;2022-12-07T07:00:51;1.68;93.42
51878;SHT31;37911;51.526;11.536;2022-12-07T07:03:54;1.69;93.50
51878;SHT31;37911;51.526;11.536;2022-12-07T07:06:57;1.76;93.25
51878;SHT31;37911;51.526;11.536;2022-12-07T07:10:05;1.83;92.96
51878;SHT31;37911;51.526;11.536;2022-12-07T07:13:08;1.85;92.98
51878;SHT31;37911;51.526;11.536;2022-12-07T07:16:12;1.91;92.76
51878;SHT31;37911;51.526;11.536;2022-12-07T07:19:17;1.92;92.44
51878;SHT31;37911;51.526;11.536;2022-12-07T07:22:20;1.96;92.27
51878;SHT31;37911;51.526;11.536;2022-12-07T07:25:26;1.94;92.36
51878;SHT31;37911;51.526;11.536;2022-12-07T07:28:29;1.98;92.43
51878;SHT31;37911;51.526;11.536;2022-12-07T07:31:34;2.03;92.45
51878;SHT31;37911;51.526;11.536;2022-12-07T07:34:38;2.10;92.29
51878;SHT31;37911;51.526;11.536;2022-12-07T07:37:42;2.15;92.37
51878;SHT31;37911;51.526;11.536;2022-12-07T07:40:48;2.16;92.33
51878;SHT31;37911;51.526;11.536;2022-12-07T07:43:52;2.17;92.43
51878;SHT31;37911;51.526;11.536;2022-12-07T07:46:55;2.26;92.34
51878;SHT31;37911;51.526;11.536;2022-12-07T07:50:00;2.30;92.19
51878;SHT31;37911;51.526;11.536;2022-12-07T07:53:04;2.29;92.29
51878;SHT31;37911;51.526;11.536;2022-12-07T07:56:13;2.26;92.31
51878;SHT31;37911;51.526;11.536;2022-12-07T07:59:16;2.26;92.33
51878;SHT31;37911;51.526;11.536;2022-12-07T08:02:21;2.27;92.36
51878;SHT31;37911;51.526;11.536;2022-12-07T08:05:25;2.34;92.28
51878;SHT31;37911;51.526;11.536;2022-12-07T08:08:28;2.37;92.23
51878;SHT31;37911;51.526;11.536;2022-12-07T08:11:37;2.39;92.41
51878;SHT31;37911;51.526;11.536;2022-12-07T08:14:40;2.41;92.55
51878;SHT31;37911;51.526;11.536;2022-12-07T08:17:44;2.43;92.59
51878;SHT31;37911;51.526;11.536;2022-12-07T08:20:47;2.46;92.59
51878;SHT31;37911;51.526;11.536;2022-12-07T08:23:50;2.46;92.61
51878;SHT31;37911;51.526;11.536;2022-12-07T08:26:56;2.44;92.70
51878;SHT31;37911;51.526;11.536;2022-12-07T08:30:02;2.49;92.78
51878;SHT31;37911;51.526;11.536;2022-12-07T08:33:05;2.53;92.91
51878;SHT31;37911;51.526;11.536;2022-12-07T08:36:10;2.65;92.93
51878;SHT31;37911;51.526;11.536;2022-12-07T08:39:14;2.73;92.73
51878;SHT31;37911;51.526;11.536;2022-12-07T08:42:20;2.80;92.53
51878;SHT31;37911;51.526;11.536;2022-12-07T08:45:27;2.80;92.30
51878;SHT31;37911;51.526;11.536;2022-12-07T08:48:34;2.84;92.24
51878;SHT31;37911;51.526;11.536;2022-12-07T08:51:40;2.85;92.23
51878;SHT31;37911;51.526;11.536;2022-12-07T08:54:44;2.90;92.29
51878;SHT31;37911;51.526;11.536;2022-12-07T08:57:51;2.97;92.26
51878;SHT31;37911;51.526;11.536;2022-12-07T09:00:54;2.98;92.14
51878;SHT31;37911;51.526;11.536;2022-12-07T09:03:59;3.00;92.19
51878;SHT31;37911;51.526;11.536;2022-12-07T09:07:03;3.00;92.16
51878;SHT31;37911;51.526;11.536;2022-12-07T09:10:07;2.95;92.27
51878;SHT31;37911;51.526;11.536;2022-12-07T09:13:15;3.01;92.15
51878;SHT31;37911;51.526;11.536;2022-12-07T09:16:18;3.07;91.92
51878;SHT31;37911;51.526;11.536;2022-12-07T09:19:22;3.12;91.64
51878;SHT31;37911;51.526;11.536;2022-12-07T09:22:28;3.09;91.69
51878;SHT31;37911;51.526;11.536;2022-12-07T09:25:33;3.08;91.67
51878;SHT31;37911;51.526;11.536;2022-12-07T09:28:40;3.12;91.74
51878;SHT31;37911;51.526;11.536;2022-12-07T09:31:43;3.18;91.58
51878;SHT31;37911;51.526;11.536;2022-12-07T09:34:46;3.24;91.46
51878;SHT31;37911;51.526;11.536;2022-12-07T09:37:50;3.26;91.51
51878;SHT31;37911;51.526;11.536;2022-12-07T09:40:56;3.25;91.44
51878;SHT31;37911;51.526;11.536;2022-12-07T09:44:04;3.22;91.20
51878;SHT31;37911;51.526;11.536;2022-12-07T09:47:09;3.19;91.28
51878;SHT31;37911;51.526;11.536;2022-12-07T09:50:15;3.09;91.43
51878;SHT31;37911;51.526;11.536;2022-12-07T09:53:23;3.08;91.54
51878;SHT31;37911;51.526;11.536;2022-12-07T09:56:29;3.00;91.67
51878;SHT31;37911;51.526;11.536;2022-12-07T09:59:36;3.01;91.83
51878;SHT31;37911;51.526;11.536;2022-12-07T10:02:42;3.02;92.00
51878;SHT31;37911;51.526;11.536;2022-12-07T10:05:48;3.04;92.28
51878;SHT31;37911;51.526;11.536;2022-12-07T10:08:52;3.09;92.34
51878;SHT31;37911;51.526;11.536;2022-12-07T10:12:04;3.14;92.50
51878;SHT31;37911;51.526;11.536;2022-12-07T10:15:10;3.21;92.61
51878;SHT31;37911;51.526;11.536;2022-12-07T10:18:19;3.29;92.79
51878;SHT31;37911;51.526;11.536;2022-12-07T10:21:24;3.43;92.88
51878;SHT31;37911;51.526;11.536;2022-12-07T10:24:27;3.54;92.92
51878;SHT31;37911;51.526;11.536;2022-12-07T10:27:32;3.62;92.95
51878;SHT31;37911;51.526;11.536;2022-12-07T10:30:49;3.65;92.65
51878;SHT31;37911;51.526;11.536;2022-12-07T10:33:54;3.65;92.65
51878;SHT31;37911;51.526;11.536;2022-12-07T10:37:15;3.79;92.46
51878;SHT31;37911;51.526;11.536;2022-12-07T10:40:32;3.83;91.10
51878;SHT31;37911;51.526;11.536;2022-12-07T10:43:36;3.82;90.57
51878;SHT31;37911;51.526;11.536;2022-12-07T10:47:07;3.86;90.50
51878;SHT31;37911;51.526;11.536;2022-12-07T10:50:41;3.91;89.81
51878;SHT31;37911;51.526;11.536;2022-12-07T10:53:55;4.09;89.81
51878;SHT31;37911;51.526;11.536;2022-12-07T10:57:15;4.13;89.27
51878;SHT31;37911;51.526;11.536;2022-12-07T11:00:23;4.24;88.68
51878;SHT31;37911;51.526;11.536;2022-12-07T11:03:41;4.27;88.12
51878;SHT31;37911;51.526;11.536;2022-12-07T11:06:52;4.31;87.42
51878;SHT31;37911;51.526;11.536;2022-12-07T11:10:02;4.50;86.80
51878;SHT31;37911;51.526;11.536;2022-12-07T11:13:22;4.61;86.49
51878;SHT31;37911;51.526;11.536;2022-12-07T11:16:36;4.78;85.78
51878;SHT31;37911;51.526;11.536;2022-12-07T11:19:55;4.86;85.24
51878;SHT31;37911;51.526;11.536;2022-12-07T11:23:04;4.85;84.72
51878;SHT31;37911;51.526;11.536;2022-12-07T11:26:13;4.75;84.92
51878;SHT31;37911;51.526;11.536;2022-12-07T11:29:28;4.65;84.53
51878;SHT31;37911;51.526;11.536;2022-12-07T11:32:53;4.61;85.05
51878;SHT31;37911;51.526;11.536;2022-12-07T11:36:09;4.57;85.55
51878;SHT31;37911;51.526;11.536;2022-12-07T11:39:24;4.50;85.97
51878;SHT31;37911;51.526;11.536;2022-12-07T11:42:35;4.45;85.23
51878;SHT31;37911;51.526;11.536;2022-12-07T11:45:42;4.34;85.09
51878;SHT31;37911;51.526;11.536;2022-12-07T11:48:53;4.34;85.60
51878;SHT31;37911;51.526;11.536;2022-12-07T11:52:02;4.30;85.62
51878;SHT31;37911;51.526;11.536;2022-12-07T11:55:17;4.33;85.62
51878;SHT31;37911;51.526;11.536;2022-12-07T11:58:38;4.42;86.42
51878;SHT31;37911;51.526;11.536;2022-12-07T12:01:50;4.51;85.54
51878;SHT31;37911;51.526;11.536;2022-12-07T12:05:01;4.55;85.69
51878;SHT31;37911;51.526;11.536;2022-12-07T12:08:14;4.51;85.50
51878;SHT31;37911;51.526;11.536;2022-12-07T12:11:39;4.42;85.70
51878;SHT31;37911;51.526;11.536;2022-12-07T12:14:57;4.42;85.68
51878;SHT31;37911;51.526;11.536;2022-12-07T12:18:23;4.37;86.13
51878;SHT31;37911;51.526;11.536;2022-12-07T12:21:31;4.31;86.03
51878;SHT31;37911;51.526;11.536;2022-12-07T12:24:37;4.25;85.82
51878;SHT31;37911;51.526;11.536;2022-12-07T12:27:45;4.20;85.79
51878;SHT31;37911;51.526;11.536;2022-12-07T12:31:06;4.16;85.53
51878;SHT31;37911;51.526;11.536;2022-12-07T12:34:29;4.20;85.51
51878;SHT31;37911;51.526;11.536;2022-12-07T12:37:41;4.17;85.45
51878;SHT31;37911;51.526;11.536;2022-12-07T12:40:47;4.17;85.48
51878;SHT31;37911;51.526;11.536;2022-12-07T12:43:51;4.22;84.92
51878;SHT31;37911;51.526;11.536;2022-12-07T12:46:56;4.18;85.84
51878;SHT31;37911;51.526;11.536;2022-12-07T12:50:28;4.18;85.84
51878;SHT31;37911;51.526;11.536;2022-12-07T12:53:33;4.16;85.68
51878;SHT31;37911;51.526;11.536;2022-12-07T12:56:43;4.20;86.01
51878;SHT31;37911;51.526;11.536;2022-12-07T12:59:56;4.13;86.09
51878;SHT31;37911;51.526;11.536;2022-12-07T13:03:00;4.16;86.43
51878;SHT31;37911;51.526;11.536;2022-12-07T13:06:19;4.10;86.53
51878;SHT31;37911;51.526;11.536;2022-12-07T13:09:26;4.11;86.75
51878;SHT31;37911;51.526;11.536;2022-12-07T13:12:34;4.11;86.78
51878;SHT31;37911;51.526;11.536;2022-12-07T13:15:39;4.07;86.49
51878;SHT31;37911;51.526;11.536;2022-12-07T13:18:43;4.06;86.57
51878;SHT31;37911;51.526;11.536;2022-12-07T13:21:46;4.03;86.03
51878;SHT31;37911;51.526;11.536;2022-12-07T13:24:54;4.01;86.00
51878;SHT31;37911;51.526;11.536;2022-12-07T13:28:02;3.99;85.73
51878;SHT31;37911;51.526;11.536;2022-12-07T13:31:18;3.91;85.97
51878;SHT31;37911;51.526;11.536;2022-12-07T13:34:31;3.85;86.00
51878;SHT31;37911;51.526;11.536;2022-12-07T13:37:34;3.80;86.27
51878;SHT31;37911;51.526;11.536;2022-12-07T13:40:38;3.79;86.22
51878;SHT31;37911;51.526;11.536;2022-12-07T13:43:50;3.82;86.42
51878;SHT31;37911;51.526;11.536;2022-12-07T13:46:59;3.83;86.27
51878;SHT31;37911;51.526;11.536;2022-12-07T13:50:22;3.70;86.27
51878;SHT31;37911;51.526;11.536;2022-12-07T13:53:27;3.73;86.48
51878;SHT31;37911;51.526;11.536;2022-12-07T13:56:33;3.69;86.71
51878;SHT31;37911;51.526;11.536;2022-12-07T13:59:42;3.73;86.52
51878;SHT31;37911;51.526;11.536;2022-12-07T14:02:55;3.67;86.32
51878;SHT31;37911;51.526;11.536;2022-12-07T14:06:05;3.65;86.60
51878;SHT31;37911;51.526;11.536;2022-12-07T14:09:17;3.58;86.97
51878;SHT31;37911;51.526;11.536;2022-12-07T14:12:27;3.56;86.85
51878;SHT31;37911;51.526;11.536;2022-12-07T14:15:34;3.55;86.67
51878;SHT31;37911;51.526;11.536;2022-12-07T14:18:39;3.54;86.73
51878;SHT31;37911;51.526;11.536;2022-12-07T14:21:43;3.52;86.53
51878;SHT31;37911;51.526;11.536;2022-12-07T14:24:46;3.49;86.56
51878;SHT31;37911;51.526;11.536;2022-12-07T14:27:55;3.48;86.54
51878;SHT31;37911;51.526;11.536;2022-12-07T14:31:02;3.49;86.14
51878;SHT31;37911;51.526;11.536;2022-12-07T14:34:11;3.46;86.18
51878;SHT31;37911;51.526;11.536;2022-12-07T14:37:14;3.48;86.08
51878;SHT31;37911;51.526;11.536;2022-12-07T14:40:20;3.45;86.40
51878;SHT31;37911;51.526;11.536;2022-12-07T14:43:26;3.43;86.51
51878;SHT31;37911;51.526;11.536;2022-12-07T14:46:33;3.42;86.58
51878;SHT31;37911;51.526;11.536;2022-12-07T14:49:37;3.39;86.78
51878;SHT31;37911;51.526;11.536;2022-12-07T14:52:42;3.35;86.66
51878;SHT31;37911;51.526;11.536;2022-12-07T14:55:47;3.36;86.56
51878;SHT31;37911;51.526;11.536;2022-12-07T14:58:51;3.45;86.32
51878;SHT31;37911;51.526;11.536;2022-12-07T15:01:57;3.36;86.48
51878;SHT31;37911;51.526;11.536;2022-12-07T15:05:00;3.42;86.35
51878;SHT31;37911;51.526;11.536;2022-12-07T15:08:04;3.40;86.50
51878;SHT31;37911;51.526;11.536;2022-12-07T15:11:09;3.36;86.86
51878;SHT31;37911;51.526;11.536;2022-12-07T15:14:14;3.35;86.96
51878;SHT31;37911;51.526;11.536;2022-12-07T15:17:22;3.31;87.09
51878;SHT31;37911;51.526;11.536;2022-12-07T15:20:25;3.29;87.23
51878;SHT31;37911;51.526;11.536;2022-12-07T15:23:29;3.28;87.35
51878;SHT31;37911;51.526;11.536;2022-12-07T15:26:32;3.25;87.52
51878;SHT31;37911;51.526;11.536;2022-12-07T15:29:36;3.26;87.54
51878;SHT31;37911;51.526;11.536;2022-12-07T15:32:42;3.26;87.47
51878;SHT31;37911;51.526;11.536;2022-12-07T15:35:45;3.21;87.53
51878;SHT31;37911;51.526;11.536;2022-12-07T15:38:49;3.24;87.33
51878;SHT31;37911;51.526;11.536;2022-12-07T15:41:52;3.16;87.46
51878;SHT31;37911;51.526;11.536;2022-12-07T15:44:56;3.09;87.73
51878;SHT31;37911;51.526;11.536;2022-12-07T15:48:12;3.05;87.92
51878;SHT31;37911;51.526;11.536;2022-12-07T15:51:15;3.00;88.14
51878;SHT31;37911;51.526;11.536;2022-12-07T15:54:21;3.00;88.02
51878;SHT31;37911;51.526;11.536;2022-12-07T15:57:26;2.95;88.16
51878;SHT31;37911;51.526;11.536;2022-12-07T16:00:30;2.94;88.30
51878;SHT31;37911;51.526;11.536;2022-12-07T16:03:36;2.90;88.44
51878;SHT31;37911;51.526;11.536;2022-12-07T16:06:40;2.90;88.51
51878;SHT31;37911;51.526;11.536;2022-12-07T16:09:43;2.92;88.53
51878;SHT31;37911;51.526;11.536;2022-12-07T16:12:47;2.91;88.69
51878;SHT31;37911;51.526;11.536;2022-12-07T16:15:50;2.88;88.75
51878;SHT31;37911;51.526;11.536;2022-12-07T16:18:57;2.88;88.72
51878;SHT31;37911;51.526;11.536;2022-12-07T16:22:01;2.91;88.81
51878;SHT31;37911;51.526;11.536;2022-12-07T16:25:05;2.95;88.73
51878;SHT31;37911;51.526;11.536;2022-12-07T16:28:08;2.94;88.65
51878;SHT31;37911;51.526;11.536;2022-12-07T16:31:14;2.94;88.45
51878;SHT31;37911;51.526;11.536;2022-12-07T16:34:20;2.98;88.28
51878;SHT31;37911;51.526;11.536;2022-12-07T16:37:24;2.95;88.11
51878;SHT31;37911;51.526;11.536;2022-12-07T16:40:27;2.98;87.85
51878;SHT31;37911;51.526;11.536;2022-12-07T16:43:30;2.97;87.94
51878;SHT31;37911;51.526;11.536;2022-12-07T16:46:35;2.94;88.24
51878;SHT31;37911;51.526;11.536;2022-12-07T16:49:42;2.98;87.89
51878;SHT31;37911;51.526;11.536;2022-12-07T16:52:45;2.97;87.73
51878;SHT31;37911;51.526;11.536;2022-12-07T16:55:49;2.95;87.51
51878;SHT31;37911;51.526;11.536;2022-12-07T16:58:53;2.92;87.48
51878;SHT31;37911;51.526;11.536;2022-12-07T17:01:56;2.90;87.61
51878;SHT31;37911;51.526;11.536;2022-12-07T17:05:03;2.84;87.74
51878;SHT31;37911;51.526;11.536;2022-12-07T17:08:07;2.90;87.51
51878;SHT31;37911;51.526;11.536;2022-12-07T17:11:12;2.84;87.42
51878;SHT31;37911;51.526;11.536;2022-12-07T17:14:16;2.83;87.57
51878;SHT31;37911;51.526;11.536;2022-12-07T17:17:32;2.77;87.59
51878;SHT31;37911;51.526;11.536;2022-12-07T17:20:38;2.74;87.73
51878;SHT31;37911;51.526;11.536;2022-12-07T17:23:41;2.73;87.86
51878;SHT31;37911;51.526;11.536;2022-12-07T17:26:45;2.73;87.96
51878;SHT31;37911;51.526;11.536;2022-12-07T17:29:49;2.67;88.06
51878;SHT31;37911;51.526;11.536;2022-12-07T17:32:52;2.68;88.25
51878;SHT31;37911;51.526;11.536;2022-12-07T17:35:58;2.70;88.13
51878;SHT31;37911;51.526;11.536;2022-12-07T17:39:06;2.74;87.97
51878;SHT31;37911;51.526;11.536;2022-12-07T17:42:10;2.67;88.28
51878;SHT31;37911;51.526;11.536;2022-12-07T17:45:25;2.64;88.53
51878;SHT31;37911;51.526;11.536;2022-12-07T17:48:29;2.67;88.60
51878;SHT31;37911;51.526;11.536;2022-12-07T17:51:35;2.65;88.71
51878;SHT31;37911;51.526;11.536;2022-12-07T17:54:51;2.67;88.69
51878;SHT31;37911;51.526;11.536;2022-12-07T17:57:54;2.70;88.52
51878;SHT31;37911;51.526;11.536;2022-12-07T18:00:58;2.71;88.46
51878;SHT31;37911;51.526;11.536;2022-12-07T18:04:02;2.68;88.76
51878;SHT31;37911;51.526;11.536;2022-12-07T18:07:09;2.65;88.76
51878;SHT31;37911;51.526;11.536;2022-12-07T18:10:12;2.61;88.84
51878;SHT31;37911;51.526;11.536;2022-12-07T18:13:16;2.60;89.01
51878;SHT31;37911;51.526;11.536;2022-12-07T18:16:32;2.58;89.21
51878;SHT31;37911;51.526;11.536;2022-12-07T18:19:36;2.65;88.75
51878;SHT31;37911;51.526;11.536;2022-12-07T18:22:42;2.67;88.89
51878;SHT31;37911;51.526;11.536;2022-12-07T18:25:47;2.71;88.67
51878;SHT31;37911;51.526;11.536;2022-12-07T18:28:50;2.71;88.76
51878;SHT31;37911;51.526;11.536;2022-12-07T18:31:54;2.76;88.71
51878;SHT31;37911;51.526;11.536;2022-12-07T18:34:58;2.76;88.91
51878;SHT31;37911;51.526;11.536;2022-12-07T18:38:04;2.76;89.14
51878;SHT31;37911;51.526;11.536;2022-12-07T18:41:09;2.76;89.64
51878;SHT31;37911;51.526;11.536;2022-12-07T18:44:14;2.76;89.82
51878;SHT31;37911;51.526;11.536;2022-12-07T18:47:18;2.73;89.97
51878;SHT31;37911;51.526;11.536;2022-12-07T18:50:21;2.71;90.14
51878;SHT31;37911;51.526;11.536;2022-12-07T18:53:27;2.68;90.17
51878;SHT31;37911;51.526;11.536;2022-12-07T18:56:31;2.68;90.17
51878;SHT31;37911;51.526;11.536;2022-12-07T18:59:34;2.67;90.01
51878;SHT31;37911;51.526;11.536;2022-12-07T19:02:50;2.70;89.94
51878;SHT31;37911;51.526;11.536;2022-12-07T19:05:54;2.67;89.82
51878;SHT31;37911;51.526;11.536;2022-12-07T19:09:00;2.68;89.73
51878;SHT31;37911;51.526;11.536;2022-12-07T19:12:04;2.65;89.55
51878;SHT31;37911;51.526;11.536;2022-12-07T19:15:09;2.64;89.49
51878;SHT31;37911;51.526;11.536;2022-12-07T19:18:14;2.64;89.64
51878;SHT31;37911;51.526;11.536;2022-12-07T19:21:17;2.65;89.63
51878;SHT31;37911;51.526;11.536;2022-12-07T19:24:23;2.64;89.61
51878;SHT31;37911;51.526;11.536;2022-12-07T19:27:27;2.64;89.66
51878;SHT31;37911;51.526;11.536;2022-12-07T19:30:31;2.61;89.91
51878;SHT31;37911;51.526;11.536;2022-12-07T19:33:36;2.67;89.82
51878;SHT31;37911;51.526;11.536;2022-12-07T19:36:40;2.65;89.56
51878;SHT31;37911;51.526;11.536;2022-12-07T19:39:48;2.67;89.66
51878;SHT31;37911;51.526;11.536;2022-12-07T19:42:51;2.58;89.78
51878;SHT31;37911;51.526;11.536;2022-12-07T19:45:54;2.57;89.86
51878;SHT31;37911;51.526;11.536;2022-12-07T19:48:58;2.50;90.02